Latest Weather Observations for Learmonth

IDW60801

Issued at 3:03 pm WST Saturday 2 July 2016 (issued every 30 minutes, with the page automatically refreshed every 10 minutes)

About weather observations | Map of weather stations | Latest weather observations for WA | Other Formats
Station Details ID: 005007 Name: LEARMONTH AIRPORT Lat: -22.24 Lon: 114.10 Height: 5.0 m
Data from the previous 72 hours. | See also: Recent months at Learmonth
Date/Time
WST
Temp
°C
App
Temp
°C
Dew
Point
°C
Rel
Hum
%
Delta-T
°C
Wind Press
QNH
hPa
Press
MSL
hPa
Rain since
9am
mm
Dir  Spd
km/h
Gust
km/h
Spd
kts
Gust
kts
02/03:00pm 22.1 22.7 17.6 75 2.8 N 11 19 6 10 1015.2 1015.1 0.2
02/02:30pm 22.6 23.0 18.1 76 2.8 N 13 17 7 9 1015.3 - 0.0
02/02:00pm 22.6 23.5 18.3 76 2.7 NNE 11 15 6 8 1015.3 - 0.0
02/01:30pm 22.2 20.7 17.7 75 2.8 N 22 32 12 17 1015.8 - 0.0
02/01:00pm 23.0 21.9 17.3 70 3.5 NNE 19 28 10 15 1016.1 - 0.0
02/12:30pm 23.7 21.7 16.5 64 4.4 NE 22 28 12 15 1016.0 - 0.0
02/12:00pm 23.2 21.2 16.5 66 4.1 NE 22 30 12 16 1016.7 1016.6 0.0
02/11:30am 22.9 22.0 18.3 75 2.9 NE 20 28 11 15 1016.8 - 0.0
02/11:00am 22.6 22.4 19.3 81 2.1 NE 19 24 10 13 1017.2 - 0.0
02/10:30am 22.3 22.5 18.6 79 2.3 NNE 15 19 8 10 1017.7 - 0.0
02/10:00am 22.3 23.1 19.0 81 2.1 N 13 19 7 10 1017.8 - 0.0
02/09:30am 23.2 22.7 19.1 78 2.6 N 20 22 11 12 1017.3 - 0.0
02/09:00am 21.9 22.3 19.0 83 1.8 NE 15 19 8 10 1017.0 1016.9 0.0
02/08:30am 21.9 22.9 18.7 82 2.0 NE 11 13 6 7 1017.1 - 0.0
02/08:00am 21.2 22.4 19.0 87 1.4 E 11 13 6 7 1016.7 - 0.0
02/07:30am 20.9 22.3 18.7 87 1.4 ENE 9 13 5 7 1016.4 - 0.0
02/07:00am 20.8 22.2 18.6 87 1.4 ENE 9 13 5 7 1016.1 - 0.0
02/06:30am 20.4 21.8 18.6 89 1.1 ENE 9 11 5 6 1015.8 - 0.0
02/06:00am 20.6 22.4 18.8 89 1.1 NE 7 11 4 6 1015.8 1015.7 0.0
02/05:30am 21.3 22.8 18.1 82 2.0 NE 7 15 4 8 1015.6 - 0.0
02/05:00am 20.5 22.4 18.9 90 1.0 ESE 7 9 4 5 1015.2 - 0.0
02/04:30am 20.4 21.5 18.8 90 1.0 ENE 11 13 6 7 1015.0 - 0.0
02/04:00am 20.3 21.3 18.7 90 1.0 NE 11 13 6 7 1015.1 - 0.0
02/03:30am 20.5 21.3 19.1 92 0.9 NE 13 13 7 7 1015.1 - 0.0
02/03:00am 20.8 22.5 19.4 92 0.9 NE 9 11 5 6 1015.4 1015.3 0.0
02/02:30am 20.8 23.0 19.5 92 0.8 NNE 7 9 4 5 1015.4 - 0.0
02/02:00am 20.8 24.4 19.7 93 0.7 CALM 0 0 0 0 1015.7 - 0.0
02/01:30am 20.7 24.3 19.8 95 0.6 CALM 0 0 0 0 1015.8 - 0.0
02/01:00am 20.8 24.5 19.9 95 0.6 CALM 0 0 0 0 1015.8 - 0.0
02/12:30am 20.8 24.4 19.7 93 0.7 CALM 0 0 0 0 1016.1 - 0.0
02/12:00am 20.9 24.4 19.6 92 0.8 CALM 0 0 0 0 1016.4 1016.3 0.0
 
Date/Time
WST
Temp
°C
App
Temp
°C
Dew
Point
°C
Rel
Hum
%
Delta-T
°C
Wind Press
QNH
hPa
Press
MSL
hPa
Rain since
9am
mm
Dir  Spd
km/h
Gust
km/h
Spd
kts
Gust
kts
01/11:30pm 21.0 24.1 19.6 92 0.9 NE 2 6 1 3 1016.6 - 0.0
01/11:00pm 21.1 23.3 19.7 92 0.9 N 7 7 4 4 1016.8 - 0.0
01/10:30pm 21.1 24.7 19.7 92 0.9 CALM 0 0 0 0 1016.9 - 0.0
01/10:00pm 21.2 23.3 19.3 89 1.2 NNW 7 9 4 5 1016.9 - 0.0
01/09:30pm 21.2 24.2 19.3 89 1.2 NE 2 7 1 4 1016.7 - 0.0
01/09:00pm 21.0 22.7 19.3 90 1.1 N 9 9 5 5 1016.8 1016.7 0.0
01/08:30pm 21.3 24.2 19.1 87 1.4 N 2 7 1 4 1016.7 - 0.0
01/08:00pm 21.0 24.2 18.9 88 1.3 CALM 0 0 0 0 1016.5 - 0.0
01/07:30pm 21.2 24.5 19.0 87 1.4 CALM 0 6 0 3 1016.3 - 0.0
01/07:00pm 21.3 23.2 18.9 86 1.5 NNE 7 11 4 6 1016.0 - 0.0
01/06:30pm 21.5 23.0 18.8 84 1.7 NNE 9 11 5 6 1015.7 - 0.0
01/06:00pm 21.4 21.9 18.4 83 1.9 N 13 15 7 8 1015.4 1015.3 0.0
01/05:30pm 21.6 22.1 18.4 82 2.0 N 13 17 7 9 1015.2 - 0.0
01/05:00pm 22.0 22.0 18.1 78 2.4 N 15 20 8 11 1015.1 - 0.0
01/04:30pm 22.8 22.3 17.8 73 3.1 N 17 22 9 12 1014.9 - 0.0
01/04:00pm 22.5 21.8 17.3 72 3.2 N 17 22 9 12 1015.0 - 0.0
01/03:30pm 22.9 22.4 17.0 69 3.6 N 15 19 8 10 1014.9 - 0.0
01/03:00pm 23.3 23.1 16.6 66 4.1 NNE 13 19 7 10 1014.9 1014.8 0.0
01/02:30pm 23.6 22.4 16.0 62 4.6 NNE 17 22 9 12 1015.1 - 0.0
01/02:00pm 23.9 24.4 17.5 67 4.0 E 11 13 6 7 1015.2 - 0.0
01/01:30pm 23.8 24.1 17.0 65 4.2 ENE 11 13 6 7 1015.5 - 0.0
01/01:00pm 23.3 23.5 16.8 67 4.0 E 11 13 6 7 1015.9 - 0.0
01/12:30pm 23.7 24.3 16.7 65 4.3 E 9 15 5 8 1016.4 - 0.0
01/12:00pm 22.8 23.3 16.6 68 3.8 ESE 9 13 5 7 1017.0 1016.9 0.0
01/11:30am 22.2 22.6 16.4 69 3.5 SE 9 13 5 7 1017.3 - 0.0
01/11:00am 21.0 20.8 15.6 71 3.2 SE 11 13 6 7 1017.5 - 0.0
01/10:30am 21.1 20.5 15.7 71 3.2 ESE 13 17 7 9 1017.7 - 0.0
01/10:00am 21.1 20.4 15.4 70 3.4 ESE 13 20 7 11 1018.0 - 0.0
01/09:30am 21.6 21.0 15.6 68 3.6 SE 13 17 7 9 1018.2 - 0.0
01/09:00am 20.6 20.1 15.9 74 2.8 SE 13 17 7 9 1017.9 1017.8 0.0
01/08:30am 19.3 19.9 15.8 80 2.1 SSE 7 9 4 5 1018.1 - 0.0
01/08:00am 18.3 19.2 16.1 87 1.3 WNW 6 7 3 4 1017.9 - 0.0
01/07:30am 17.4 18.1 15.5 89 1.1 SW 6 7 3 4 1017.5 - 0.0
01/07:00am 17.1 17.8 16.1 94 0.6 SSW 7 43 4 23 1017.1 - 0.0
01/06:30am 17.2 17.5 16.0 93 0.7 SSW 9 11 5 6 1017.0 - 0.0
01/06:00am 17.0 16.4 15.6 91 0.8 S 13 17 7 9 1016.8 1016.7 0.0
01/05:30am 17.0 16.8 15.6 91 0.8 S 11 13 6 7 1016.6 - 0.0
01/05:00am 17.5 17.0 15.8 90 1.0 S 13 15 7 8 1016.6 - 0.0
01/04:30am 17.5 16.8 15.4 87 1.2 S 13 17 7 9 1016.7 - 0.0
01/04:00am 17.4 16.7 15.3 87 1.2 SSW 13 15 7 8 1016.9 - 0.0
01/03:30am 16.8 16.5 15.4 91 0.8 SSW 11 15 6 8 1016.8 - 0.0
01/03:00am 16.3 16.6 14.9 91 0.8 SSW 7 11 4 6 1016.9 1016.8 0.0
01/02:30am 15.9 15.6 14.5 91 0.8 SW 9 11 5 6 1017.2 - 0.0
01/02:00am 15.9 15.9 14.3 90 0.9 S 7 9 4 5 1017.2 - 0.0
01/01:30am 16.3 16.0 14.5 89 1.0 S 9 13 5 7 1017.6 - 0.0
01/01:00am 17.2 16.3 14.8 86 1.4 SSW 13 15 7 8 1017.7 - 0.0
01/12:30am 17.3 16.0 14.7 85 1.5 SSW 15 17 8 9 1017.7 - 0.0
01/12:00am 17.4 15.3 14.8 85 1.5 SSW 19 20 10 11 1017.8 1017.7 0.0
 
Date/Time
WST
Temp
°C
App
Temp
°C
Dew
Point
°C
Rel
Hum
%
Delta-T
°C
Wind Press
QNH
hPa
Press
MSL
hPa
Rain since
9am
mm
Dir  Spd
km/h
Gust
km/h
Spd
kts
Gust
kts
30/11:30pm 17.9 16.4 15.2 84 1.6 SSW 17 19 9 10 1017.8 - 0.0
30/11:00pm 18.1 17.1 15.7 86 1.4 SSW 15 19 8 10 1017.8 - 0.0
30/10:30pm 19.0 17.8 16.0 83 1.8 SSW 17 19 9 10 1018.0 - 0.0
30/10:00pm 19.6 18.9 16.3 81 2.0 SSW 15 19 8 10 1018.1 - 0.0
30/09:30pm 19.9 18.3 16.4 80 2.1 SSW 20 22 11 12 1017.8 - 0.0
30/09:00pm 20.5 19.0 16.7 79 2.3 SSW 20 24 11 13 1017.9 1017.8 0.0
30/08:30pm 20.4 18.9 16.8 80 2.2 SSW 20 28 11 15 1017.7 - 0.0
30/08:00pm 20.5 19.0 16.7 79 2.3 SSW 20 26 11 14 1017.6 - 0.0
30/07:30pm 20.3 18.9 16.5 79 2.3 SW 19 22 10 12 1017.2 - 0.0
30/07:00pm 20.8 19.4 16.5 76 2.6 SW 19 20 10 11 1016.9 - 0.0
30/06:30pm 22.7 24.8 16.3 67 3.9 CALM 0 0 0 0 1016.5 - 0.0
30/06:00pm 23.6 25.1 15.8 61 4.7 NNE 2 6 1 3 1016.3 1016.2 0.0
30/05:30pm 24.4 25.3 16.0 59 5.1 NNE 6 7 3 4 1015.9 - 0.0
30/05:00pm 25.6 25.5 13.9 48 6.9 E 7 9 4 5 1015.5 - 0.0
30/04:30pm 25.4 25.1 14.3 50 6.6 E 9 11 5 6 1015.5 - 0.0
30/04:00pm 25.9 25.6 14.3 48 6.9 E 9 13 5 7 1015.2 - 0.0
30/03:30pm 26.8 26.0 14.0 45 7.6 E 11 15 6 8 1015.2 - 0.0
30/03:00pm 26.7 26.0 14.3 46 7.4 E 11 15 6 8 1015.3 1015.2 0.0
30/02:30pm 26.6 25.1 14.2 46 7.4 E 15 19 8 10 1015.4 - 0.0
30/01:30pm 26.2 24.7 14.1 47 7.2 ESE 15 19 8 10 1015.8 - 0.0
30/01:00pm 25.3 23.4 14.1 50 6.6 E 17 22 9 12 1016.3 - 0.0
30/12:30pm 25.0 22.7 14.0 50 6.5 E 19 24 10 13 1016.9 - 0.0
30/12:00pm 25.4 23.6 14.5 51 6.5 SE 17 24 9 13 1017.3 1017.2 0.0
30/11:30am 25.0 22.8 14.4 51 6.3 SE 19 26 10 14 1017.8 - 0.0
30/11:00am 24.3 21.9 13.9 52 6.1 SE 19 22 10 12 1018.2 - 0.0
30/10:30am 24.1 22.5 14.9 56 5.5 SSE 17 20 9 11 1018.5 - 0.0
30/10:00am 22.4 21.0 14.6 61 4.6 SSE 15 19 8 10 1018.8 - 0.0
30/09:30am 20.3 19.5 15.0 71 3.1 S 13 17 7 9 1019.0 - 0.0
30/09:00am 18.6 17.8 15.2 80 2.0 S 13 15 7 8 1018.9 1018.8 0.0
30/08:30am 18.1 17.4 15.5 85 1.5 SSW 13 15 7 8 1018.7 - 0.0
30/08:00am 16.3 15.8 14.9 91 0.8 SW 11 13 6 7 1018.5 - 0.0
30/07:30am 15.6 14.2 14.5 93 0.6 SW 15 17 8 9 1018.2 - 0.0
30/07:00am 16.0 14.6 14.6 91 0.8 SW 15 17 8 9 1017.9 - 0.0
30/06:30am 16.5 16.1 15.1 91 0.8 SW 11 13 6 7 1017.6 - 0.0
30/06:00am 16.9 16.6 15.5 91 0.8 SW 11 13 6 7 1017.5 1017.4 0.0
30/05:30am 16.8 16.4 15.2 90 0.9 SSW 11 13 6 7 1017.4 - 0.0
30/05:00am 17.1 17.2 15.4 90 1.0 SW 9 11 5 6 1017.4 - 0.0
30/04:30am 17.8 18.0 15.8 88 1.2 SSW 9 11 5 6 1017.4 - 0.0
30/04:00am 18.2 18.5 16.0 87 1.3 SW 9 11 5 6 1017.6 - 0.0
30/03:30am 18.3 18.7 16.3 88 1.2 SSW 9 11 5 6 1017.8 - 0.0
30/03:00am 18.4 18.1 16.4 88 1.2 SSW 13 15 7 8 1017.8 1017.7 0.0
30/02:30am 18.1 17.9 16.6 91 0.9 SSW 13 15 7 8 1018.0 - 0.0
30/02:00am 17.6 17.2 16.2 91 0.8 SSW 13 17 7 9 1018.4 - 0.0
30/01:30am 17.8 17.4 16.3 91 0.9 SW 13 15 7 8 1018.6 - 0.0
30/01:00am 18.7 18.5 16.7 88 1.2 SSW 13 15 7 8 1018.7 - 0.0
30/12:30am 19.3 19.1 16.6 84 1.6 SSW 13 17 7 9 1018.8 - 0.0
30/12:00am 19.5 19.3 16.8 84 1.6 SW 13 15 7 8 1019.0 1018.9 0.0
 
Date/Time
WST
Temp
°C
App
Temp
°C
Dew
Point
°C
Rel
Hum
%
Delta-T
°C
Wind Press
QNH
hPa
Press
MSL
hPa
Rain since
9am
mm
Dir  Spd
km/h
Gust
km/h
Spd
kts
Gust
kts
29/11:30pm 19.7 19.9 16.7 83 1.8 SSW 11 11 6 6 1019.1 - 0.0
29/11:00pm 20.0 20.0 16.3 79 2.2 SW 11 13 6 7 1019.1 - 0.0
29/10:30pm 19.9 20.3 16.2 79 2.2 SSW 9 11 5 6 1019.1 - 0.0
29/10:00pm 20.3 19.3 15.6 74 2.8 SSW 15 17 8 9 1019.0 - 0.0
29/09:30pm 20.0 19.3 15.4 75 2.7 SSW 13 15 7 8 1019.2 - 0.0
29/09:00pm 20.4 19.0 14.6 69 3.4 S 15 17 8 9 1019.2 1019.1 0.0
29/08:30pm 21.1 19.9 14.0 64 4.1 SSE 13 15 7 8 1019.1 - 0.0
29/08:00pm 21.0 20.8 14.7 67 3.7 S 9 11 5 6 1018.9 - 0.0
29/07:30pm 21.9 21.4 12.7 56 5.2 SSE 7 7 4 4 1018.6 - 0.0
29/07:00pm 21.8 21.3 13.9 61 4.6 SSE 9 11 5 6 1018.4 - 0.0
29/06:30pm 21.4 20.7 14.2 63 4.2 SSW 11 17 6 9 1018.1 - 0.0
29/06:00pm 22.8 22.2 12.4 52 5.9 N 7 9 4 5 1017.8 1017.7 0.0
29/05:30pm 22.3 22.6 14.5 61 4.6 NW 6 7 3 4 1017.6 - 0.0
29/05:00pm 22.6 22.9 15.0 62 4.5 N 7 9 4 5 1017.1 - 0.0
29/04:30pm 23.5 23.1 12.9 51 6.1 NE 7 7 4 4 1016.9 - 0.0
29/04:00pm 23.5 22.5 12.2 49 6.4 ENE 9 11 5 6 1016.8 - 0.0
29/03:30pm 23.8 22.7 12.0 47 6.7 E 9 11 5 6 1016.4 - 0.0

Other Formats:

Comma delimited format used in spreadsheet applications
http://www.bom.gov.au/fwo/IDW60801/IDW60801.94302.axf

JavaScript Object Notation format (JSON) in row-major order
http://www.bom.gov.au/fwo/IDW60801/IDW60801.94302.json